VLG56HJ LIPZ-LEAL
Flight info
| Callsign | VLG56HJ |
|---|---|
| Flight time | N/A |
| Altitude | 37000 |
| Route | CHI DCT BEROK DCT TALEP DCT OKITI DCT GERVU |
| Aircraft | A21N/M-SDE2E3FGHIRWXY/LB1 |
Departure
| Time | N/A |
|---|---|
| Airport | Venice Marco Polo Airport (LIPZ) |
Arrival
| Time | 2026-05-04 10:25 |
|---|---|
| Airport | Alicante-Elche Miguel Hernández Airport (LEAL) |
| Time | Latitude | Longitude | Altitude | Speed | Heading |
|---|---|---|---|---|---|
| 2026-05-04 08:42 | 44.15648 | 10.33132 | 37183 ft | 411 kts | 239° |
| 2026-05-04 08:42 | 44.14182 | 10.29723 | 37169 ft | 410 kts | 240° |
| 2026-05-04 08:43 | 44.11336 | 10.22834 | 37157 ft | 411 kts | 241° |
| 2026-05-04 08:43 | 44.08434 | 10.15797 | 37154 ft | 426 kts | 240° |
| 2026-05-04 08:44 | 44.05454 | 10.08658 | 37154 ft | 426 kts | 240° |
| 2026-05-04 08:46 | 43.93470 | 9.80322 | 37154 ft | 425 kts | 240° |
| 2026-05-04 08:46 | 43.90473 | 9.73278 | 37151 ft | 424 kts | 240° |
| 2026-05-04 08:47 | 43.87472 | 9.66241 | 37136 ft | 424 kts | 240° |
| 2026-05-04 08:47 | 43.84463 | 9.59203 | 37134 ft | 424 kts | 240° |
| 2026-05-04 08:48 | 43.81475 | 9.52230 | 37127 ft | 423 kts | 240° |
| 2026-05-04 08:48 | 43.78467 | 9.45231 | 37131 ft | 422 kts | 240° |
| 2026-05-04 08:49 | 43.75469 | 9.38268 | 37121 ft | 420 kts | 240° |
| 2026-05-04 08:50 | 43.64959 | 9.13997 | 37110 ft | 420 kts | 240° |
| 2026-05-04 08:51 | 43.61973 | 9.07139 | 37107 ft | 419 kts | 240° |
| 2026-05-04 08:51 | 43.58967 | 9.00251 | 37106 ft | 418 kts | 240° |
| 2026-05-04 08:52 | 43.55966 | 8.93390 | 37096 ft | 417 kts | 240° |
| 2026-05-04 08:52 | 43.52963 | 8.86541 | 37096 ft | 417 kts | 240° |
| 2026-05-04 08:54 | 43.40282 | 8.59840 | 37089 ft | 417 kts | 235° |
| 2026-05-04 08:55 | 43.36819 | 8.53446 | 37085 ft | 417 kts | 235° |
| 2026-05-04 08:55 | 43.33394 | 8.47063 | 37086 ft | 417 kts | 235° |
| 2026-05-04 09:01 | 42.97723 | 7.80879 | 37085 ft | 406 kts | 236° |
| 2026-05-04 09:01 | 42.94354 | 7.74704 | 37082 ft | 404 kts | 236° |
| 2026-05-04 09:02 | 42.90995 | 7.68561 | 37088 ft | 403 kts | 236° |
| 2026-05-04 09:02 | 42.87639 | 7.62435 | 37086 ft | 403 kts | 236° |
| 2026-05-04 09:03 | 42.84277 | 7.56310 | 37083 ft | 402 kts | 235° |
| 2026-05-04 09:03 | 42.80924 | 7.50216 | 37084 ft | 401 kts | 235° |
| 2026-05-04 09:04 | 42.77575 | 7.44141 | 37072 ft | 401 kts | 235° |
| 2026-05-04 09:04 | 42.74246 | 7.38114 | 37069 ft | 400 kts | 235° |
| 2026-05-04 09:05 | 42.70894 | 7.32057 | 37088 ft | 400 kts | 235° |
| 2026-05-04 09:05 | 42.67541 | 7.26012 | 37079 ft | 400 kts | 235° |
| 2026-05-04 09:06 | 42.64187 | 7.19976 | 37081 ft | 400 kts | 235° |
| 2026-05-04 09:08 | 42.50745 | 6.95911 | 37075 ft | 400 kts | 235° |
| 2026-05-04 09:08 | 42.47371 | 6.89900 | 37069 ft | 400 kts | 235° |
| 2026-05-04 09:09 | 42.44003 | 6.83913 | 37079 ft | 400 kts | 235° |
| 2026-05-04 09:09 | 42.40627 | 6.77924 | 37052 ft | 399 kts | 235° |
| 2026-05-04 09:10 | 42.37287 | 6.72011 | 37066 ft | 398 kts | 235° |
| 2026-05-04 09:10 | 42.33919 | 6.66057 | 37063 ft | 398 kts | 235° |
| 2026-05-04 09:11 | 42.30548 | 6.60113 | 37064 ft | 398 kts | 235° |
| 2026-05-04 09:11 | 42.27179 | 6.54182 | 37063 ft | 398 kts | 235° |
| 2026-05-04 09:12 | 42.23806 | 6.48256 | 37056 ft | 398 kts | 235° |
| 2026-05-04 09:14 | 42.10401 | 6.24824 | 37051 ft | 394 kts | 235° |
| 2026-05-04 09:14 | 42.07048 | 6.18988 | 37048 ft | 394 kts | 235° |
| 2026-05-04 09:15 | 42.03687 | 6.13154 | 37049 ft | 394 kts | 235° |
| 2026-05-04 09:15 | 42.00356 | 6.07380 | 37047 ft | 392 kts | 235° |
| 2026-05-04 09:17 | 41.85356 | 5.81523 | 37032 ft | 390 kts | 235° |
| 2026-05-04 09:18 | 41.81993 | 5.75756 | 37028 ft | 389 kts | 235° |
| 2026-05-04 09:18 | 41.78683 | 5.70091 | 37047 ft | 388 kts | 234° |
| 2026-05-04 09:19 | 41.75356 | 5.64407 | 37028 ft | 386 kts | 234° |
| 2026-05-04 09:19 | 41.72036 | 5.58745 | 37024 ft | 386 kts | 234° |
| 2026-05-04 09:20 | 41.68714 | 5.53091 | 37027 ft | 386 kts | 234° |
| 2026-05-04 09:20 | 41.65415 | 5.47486 | 37021 ft | 386 kts | 234° |
| 2026-05-04 09:21 | 41.62094 | 5.41855 | 37020 ft | 385 kts | 234° |
| 2026-05-04 09:21 | 41.58770 | 5.36228 | 37021 ft | 385 kts | 234° |
| 2026-05-04 09:22 | 41.55447 | 5.30613 | 37019 ft | 384 kts | 234° |
| 2026-05-04 09:22 | 41.52134 | 5.25028 | 37018 ft | 383 kts | 234° |
| 2026-05-04 09:23 | 41.48828 | 5.19463 | 37018 ft | 383 kts | 234° |
| 2026-05-04 09:23 | 41.45515 | 5.13896 | 37013 ft | 383 kts | 234° |
| 2026-05-04 09:25 | 41.32250 | 4.91710 | 37008 ft | 383 kts | 233° |
| 2026-05-04 09:26 | 41.28928 | 4.86179 | 37010 ft | 382 kts | 233° |
| 2026-05-04 09:26 | 41.25605 | 4.80656 | 37009 ft | 382 kts | 233° |
| 2026-05-04 09:27 | 41.22293 | 4.75161 | 37011 ft | 383 kts | 233° |
| 2026-05-04 09:27 | 41.18958 | 4.69639 | 37005 ft | 383 kts | 233° |
| 2026-05-04 09:28 | 41.16179 | 4.65045 | 37008 ft | 383 kts | 233° |
| 2026-05-04 09:28 | 41.12837 | 4.59529 | 37008 ft | 383 kts | 233° |
| 2026-05-04 09:29 | 41.09498 | 4.54026 | 37001 ft | 383 kts | 233° |
| 2026-05-04 09:29 | 41.06150 | 4.48521 | 37000 ft | 383 kts | 233° |
| 2026-05-04 09:30 | 41.02804 | 4.43029 | 37002 ft | 383 kts | 233° |
| 2026-05-04 09:30 | 40.99479 | 4.37582 | 37008 ft | 382 kts | 233° |
| 2026-05-04 09:31 | 40.96134 | 4.32108 | 37007 ft | 383 kts | 233° |
| 2026-05-04 09:31 | 40.92783 | 4.26636 | 37004 ft | 383 kts | 233° |
| 2026-05-04 09:32 | 40.89429 | 4.21171 | 37008 ft | 383 kts | 233° |
| 2026-05-04 09:34 | 40.76030 | 3.99430 | 36999 ft | 382 kts | 232° |
| 2026-05-04 09:34 | 40.72672 | 3.94005 | 36998 ft | 382 kts | 232° |
| 2026-05-04 09:35 | 40.69310 | 3.88584 | 36996 ft | 382 kts | 232° |
| 2026-05-04 09:35 | 40.65942 | 3.83161 | 36996 ft | 382 kts | 232° |
| 2026-05-04 09:37 | 40.52482 | 3.61589 | 36996 ft | 381 kts | 232° |
| 2026-05-04 09:38 | 40.49131 | 3.56241 | 36998 ft | 381 kts | 232° |
| 2026-05-04 09:38 | 40.45746 | 3.50849 | 36994 ft | 381 kts | 232° |
| 2026-05-04 09:39 | 40.42369 | 3.45479 | 36986 ft | 381 kts | 232° |
| 2026-05-04 09:39 | 40.39012 | 3.40150 | 36996 ft | 381 kts | 232° |
| 2026-05-04 09:40 | 40.35634 | 3.34797 | 36993 ft | 381 kts | 232° |
| 2026-05-04 09:40 | 40.32256 | 3.29452 | 36991 ft | 381 kts | 232° |
| 2026-05-04 09:42 | 40.18729 | 3.08145 | 37000 ft | 381 kts | 232° |
| 2026-05-04 09:43 | 40.15332 | 3.02819 | 37003 ft | 381 kts | 232° |
| 2026-05-04 09:43 | 40.11932 | 2.97496 | 37002 ft | 381 kts | 232° |
| 2026-05-04 09:44 | 40.08530 | 2.92177 | 36992 ft | 381 kts | 232° |
| 2026-05-04 09:46 | 39.94918 | 2.70991 | 36988 ft | 382 kts | 232° |
| 2026-05-04 09:46 | 39.91500 | 2.65694 | 36999 ft | 381 kts | 231° |
| 2026-05-04 09:47 | 39.88086 | 2.60412 | 36998 ft | 381 kts | 231° |
| 2026-05-04 09:49 | 39.74433 | 2.39379 | 36989 ft | 381 kts | 231° |
| 2026-05-04 09:51 | 39.62456 | 2.21043 | 36987 ft | 381 kts | 231° |
| 2026-05-04 09:51 | 39.59019 | 2.15801 | 36987 ft | 381 kts | 231° |
| 2026-05-04 09:52 | 39.55582 | 2.10569 | 36974 ft | 381 kts | 231° |
| 2026-05-04 09:52 | 39.52142 | 2.05340 | 36979 ft | 381 kts | 231° |
| 2026-05-04 09:53 | 39.48716 | 2.00141 | 36991 ft | 381 kts | 231° |
| 2026-05-04 09:53 | 39.45267 | 1.94915 | 36992 ft | 381 kts | 231° |
| 2026-05-04 09:54 | 39.41813 | 1.89692 | 37006 ft | 381 kts | 231° |
| 2026-05-04 09:54 | 39.38377 | 1.84504 | 36988 ft | 382 kts | 231° |
| 2026-05-04 09:55 | 39.34913 | 1.79282 | 36992 ft | 382 kts | 231° |
| 2026-05-04 09:55 | 39.31447 | 1.74066 | 36992 ft | 382 kts | 231° |
| 2026-05-04 09:56 | 39.27985 | 1.68865 | 36992 ft | 382 kts | 230° |
| 2026-05-04 09:56 | 39.24520 | 1.63668 | 36988 ft | 382 kts | 230° |
| 2026-05-04 09:57 | 39.21074 | 1.58508 | 36989 ft | 382 kts | 230° |
| 2026-05-04 09:57 | 39.17605 | 1.53322 | 36988 ft | 382 kts | 230° |
| 2026-05-04 09:58 | 39.14135 | 1.48141 | 36987 ft | 382 kts | 230° |
| 2026-05-04 09:58 | 39.11180 | 1.42501 | 36966 ft | 381 kts | 244° |
| 2026-05-04 10:00 | 39.03295 | 1.17043 | 36993 ft | 383 kts | 246° |
| 2026-05-04 10:02 | 38.96474 | 0.94864 | 34466 ft | 382 kts | 246° |
| 2026-05-04 10:04 | 38.89454 | 0.72227 | 27689 ft | 391 kts | 246° |
| 2026-05-04 10:04 | 38.88449 | 0.68999 | 27015 ft | 387 kts | 246° |
| 2026-05-04 10:04 | 38.87452 | 0.65800 | 26401 ft | 384 kts | 246° |
| 2026-05-04 10:04 | 38.86464 | 0.62635 | 25776 ft | 381 kts | 246° |
| 2026-05-04 10:05 | 38.85482 | 0.59495 | 25151 ft | 378 kts | 246° |
| 2026-05-04 10:05 | 38.84506 | 0.56376 | 24516 ft | 374 kts | 246° |
| 2026-05-04 10:05 | 38.83539 | 0.53289 | 23872 ft | 371 kts | 246° |
| 2026-05-04 10:05 | 38.82580 | 0.50228 | 23175 ft | 369 kts | 246° |
| 2026-05-04 10:06 | 38.81752 | 0.47121 | 22666 ft | 368 kts | 251° |
| 2026-05-04 10:06 | 38.81063 | 0.43973 | 22340 ft | 366 kts | 252° |
| 2026-05-04 10:06 | 38.80411 | 0.40864 | 21967 ft | 363 kts | 252° |
| 2026-05-04 10:08 | 38.76516 | 0.22338 | 19706 ft | 353 kts | 253° |
| 2026-05-04 10:08 | 38.75875 | 0.19309 | 19336 ft | 352 kts | 253° |
| 2026-05-04 10:08 | 38.75235 | 0.16289 | 18966 ft | 350 kts | 253° |
| 2026-05-04 10:08 | 38.74597 | 0.13287 | 18602 ft | 348 kts | 253° |
| 2026-05-04 10:09 | 38.73966 | 0.10321 | 18236 ft | 346 kts | 253° |
| 2026-05-04 10:09 | 38.73334 | 0.07351 | 17837 ft | 345 kts | 253° |
| 2026-05-04 10:09 | 38.72703 | 0.04395 | 17477 ft | 343 kts | 253° |
| 2026-05-04 10:09 | 38.72074 | 0.01449 | 17114 ft | 342 kts | 253° |
| 2026-05-04 10:10 | 38.71445 | -0.01493 | 16770 ft | 342 kts | 253° |
| 2026-05-04 10:10 | 38.70817 | -0.04426 | 16406 ft | 341 kts | 253° |
| 2026-05-04 10:10 | 38.70194 | -0.07329 | 16054 ft | 341 kts | 253° |
| 2026-05-04 10:10 | 38.69567 | -0.10251 | 15696 ft | 339 kts | 253° |
| 2026-05-04 10:11 | 38.68945 | -0.13152 | 15335 ft | 337 kts | 253° |
| 2026-05-04 10:11 | 38.68322 | -0.16045 | 14993 ft | 336 kts | 253° |
| 2026-05-04 10:11 | 38.67702 | -0.18924 | 14640 ft | 335 kts | 253° |
| 2026-05-04 10:11 | 38.67084 | -0.21791 | 14269 ft | 333 kts | 253° |
| 2026-05-04 10:12 | 38.66468 | -0.24638 | 13915 ft | 330 kts | 252° |
| 2026-05-04 10:12 | 38.65855 | -0.27465 | 13554 ft | 330 kts | 253° |
| 2026-05-04 10:12 | 38.65241 | -0.30299 | 13196 ft | 331 kts | 253° |
| 2026-05-04 10:12 | 38.64626 | -0.33136 | 12842 ft | 331 kts | 253° |
| 2026-05-04 10:13 | 38.64018 | -0.35936 | 12504 ft | 331 kts | 253° |
| 2026-05-04 10:13 | 38.63402 | -0.38770 | 12157 ft | 330 kts | 253° |
| 2026-05-04 10:13 | 38.62787 | -0.41594 | 11809 ft | 329 kts | 253° |
| 2026-05-04 10:13 | 38.62172 | -0.44415 | 11489 ft | 328 kts | 253° |
| 2026-05-04 10:14 | 38.61558 | -0.47224 | 11143 ft | 328 kts | 253° |
| 2026-05-04 10:14 | 38.60943 | -0.50036 | 10925 ft | 328 kts | 253° |
| 2026-05-04 10:16 | 38.56655 | -0.69543 | 8412 ft | 324 kts | 254° |
| 2026-05-04 10:16 | 38.56012 | -0.72255 | 8184 ft | 321 kts | 250° |
| 2026-05-04 10:16 | 38.55053 | -0.74777 | 7430 ft | 313 kts | 238° |
| 2026-05-04 10:16 | 38.53621 | -0.76883 | 6338 ft | 318 kts | 220° |
| 2026-05-04 10:17 | 38.51707 | -0.78256 | 5499 ft | 314 kts | 203° |
| 2026-05-04 10:17 | 38.49693 | -0.79193 | 4875 ft | 302 kts | 200° |
| 2026-05-04 10:19 | 38.37523 | -0.84344 | 3993 ft | 265 kts | 200° |
| 2026-05-04 10:19 | 38.35756 | -0.85036 | 3986 ft | 264 kts | 198° |
| 2026-05-04 10:19 | 38.34032 | -0.85190 | 3995 ft | 240 kts | 165° |
| 2026-05-04 10:19 | 38.32728 | -0.84113 | 4025 ft | 215 kts | 130° |
| 2026-05-04 10:20 | 38.31985 | -0.82543 | 3998 ft | 204 kts | 111° |
| 2026-05-04 10:20 | 38.31649 | -0.80790 | 3822 ft | 203 kts | 99° |
| 2026-05-04 10:20 | 38.31447 | -0.79038 | 3538 ft | 202 kts | 99° |
| 2026-05-04 10:20 | 38.31209 | -0.77276 | 3244 ft | 202 kts | 100° |
| 2026-05-04 10:21 | 38.30959 | -0.75512 | 2947 ft | 202 kts | 101° |
| 2026-05-04 10:21 | 38.30718 | -0.73791 | 2692 ft | 188 kts | 100° |
| 2026-05-04 10:21 | 38.30505 | -0.72244 | 2478 ft | 171 kts | 101° |
| 2026-05-04 10:21 | 38.30300 | -0.70765 | 2253 ft | 169 kts | 101° |
| 2026-05-04 10:22 | 38.29894 | -0.67854 | 1789 ft | 160 kts | 101° |
| 2026-05-04 10:22 | 38.29704 | -0.66478 | 1575 ft | 154 kts | 101° |
| 2026-05-04 10:22 | 38.29523 | -0.65182 | 1370 ft | 145 kts | 102° |
| 2026-05-04 10:23 | 38.29350 | -0.63924 | 1185 ft | 143 kts | 101° |
| 2026-05-04 10:23 | 38.29184 | -0.62694 | 965 ft | 140 kts | 102° |
| 2026-05-04 10:25 | 38.28261 | -0.55492 | 98 ft | 34 kts | 71° |
| 2026-05-04 10:25 | 38.28367 | -0.55197 | 92 ft | 39 kts | 55° |
| 2026-05-04 10:25 | 38.28525 | -0.54969 | 92 ft | 35 kts | 10° |
| 2026-05-04 10:25 | 38.28652 | -0.54941 | 92 ft | 11 kts | 3° |
| 2026-05-04 10:26 | 38.28685 | -0.54997 | 94 ft | 10 kts | 279° |
| 2026-05-04 10:26 | 38.28688 | -0.55016 | 94 ft | 0 kts | 280° |